METAR Data
IDs: Format: Raw Decoded Include TAF

Data at: 1738 UTC 03 Jul 2020

KABY 031653Z VRB04KT 10SM SCT040 33/23 A2994 RMK AO2 SLP137 T03280233